Time;durP1;ratioP1;P1;durP2;ratioP2;P2;SDS_P1;SDS_P2;PMS_P1;PMS_P2;Temp;Humidity;BMP_temperature;BMP_pressure;BME280_temperature;BME280_humidity;BME280_pressure;Samples;Min_cycle;Max_cycle;Signal;HPM_P1;HPM_P2
2022/04/24 00:01:31;;;;;;;42.20;38.90;;;10.10;88.20;;;;;;5091438;28;20200;-73
2022/04/24 00:03:57;;;;;;;43.90;40.10;;;10.10;88.30;;;;;;5091557;28;20214;-74
2022/04/24 00:06:25;;;;;;;42.20;38.80;;;10.10;87.90;;;;;;5095330;28;20198;-74
2022/04/24 00:08:53;;;;;;;43.08;39.67;;;10.10;88.10;;;;;;5095169;28;20282;-73
2022/04/24 00:11:20;;;;;;;43.78;40.38;;;10.00;88.40;;;;;;5094748;28;20279;-73
2022/04/24 00:13:47;;;;;;;43.50;39.65;;;10.10;88.40;;;;;;5095273;28;20218;-74
2022/04/24 00:16:14;;;;;;;42.22;38.92;;;10.10;88.50;;;;;;5095353;28;20226;-74
2022/04/24 00:18:41;;;;;;;44.38;40.97;;;10.20;88.10;;;;;;5095243;28;20287;-74
2022/04/24 00:21:09;;;;;;;43.00;39.50;;;10.20;88.00;;;;;;5094463;28;20282;-73
2022/04/24 00:23:35;;;;;;;42.97;39.65;;;10.20;87.90;;;;;;5095124;28;20554;-73
2022/04/24 00:26:04;;;;;;;42.38;39.17;;;10.20;87.90;;;;;;5094731;28;20565;-73
2022/04/24 00:28:31;;;;;;;42.67;39.45;;;10.20;87.90;;;;;;5095176;28;20556;-73
2022/04/24 00:30:59;;;;;;;41.97;38.77;;;10.20;87.90;;;;;;5096074;28;20198;-74
2022/04/24 00:33:26;;;;;;;39.43;36.50;;;10.20;87.90;;;;;;5095098;28;20471;-73
2022/04/24 00:35:52;;;;;;;42.85;39.15;;;10.30;87.90;;;;;;5095283;28;20478;-74
2022/04/24 00:38:20;;;;;;;42.25;38.75;;;10.30;87.80;;;;;;5095280;28;20203;-73
2022/04/24 00:40:48;;;;;;;43.42;40.10;;;10.40;87.60;;;;;;5095316;28;20222;-73
2022/04/24 00:43:16;;;;;;;41.10;37.87;;;10.50;87.50;;;;;;5096104;28;20216;-73
2022/04/24 00:45:43;;;;;;;43.33;40.03;;;10.50;87.30;;;;;;5101736;28;20449;-73
2022/04/24 00:48:10;;;;;;;42.90;39.60;;;10.50;87.20;;;;;;5101184;28;20202;-73
2022/04/24 00:50:39;;;;;;;43.73;40.20;;;10.40;87.40;;;;;;5102001;28;20901;-74
2022/04/24 00:53:07;;;;;;;42.07;38.83;;;10.40;87.30;;;;;;5101801;28;20473;-73
2022/04/24 00:55:34;;;;;;;41.37;38.13;;;10.50;87.10;;;;;;5101940;28;20474;-74
2022/04/24 00:58:00;;;;;;;40.77;37.77;;;10.40;87.20;;;;;;5101796;28;20533;-73
2022/04/24 01:00:29;;;;;;;41.43;38.33;;;10.40;87.30;;;;;;5101230;28;20652;-73
2022/04/24 01:02:56;;;;;;;42.83;39.53;;;10.50;87.40;;;;;;5102196;28;20470;-73
2022/04/24 01:05:23;;;;;;;41.13;37.83;;;10.50;87.30;;;;;;5101944;28;20454;-73
2022/04/24 01:07:50;;;;;;;40.70;37.50;;;10.60;86.90;;;;;;5102686;28;20548;-73
2022/04/24 01:10:17;;;;;;;42.30;39.10;;;10.60;86.80;;;;;;5102541;28;20199;-74
2022/04/24 01:12:44;;;;;;;41.33;38.30;;;10.50;86.90;;;;;;5101813;28;20970;-74
2022/04/24 01:15:11;;;;;;;40.43;37.47;;;10.50;87.10;;;;;;5102103;28;20508;-74
2022/04/24 01:17:40;;;;;;;40.87;37.60;;;10.50;87.20;;;;;;5101741;28;20485;-74
2022/04/24 01:20:09;;;;;;;40.13;37.10;;;10.60;87.10;;;;;;5103112;28;20441;-74
2022/04/24 01:22:37;;;;;;;42.63;39.30;;;10.60;87.20;;;;;;5103769;28;20227;-73
2022/04/24 01:25:04;;;;;;;41.50;38.20;;;10.60;87.00;;;;;;5097378;28;20263;-73
2022/04/24 01:27:31;;;;;;;40.17;37.07;;;10.60;86.80;;;;;;5094214;28;20536;-73
2022/04/24 01:29:58;;;;;;;41.53;38.33;;;10.60;87.00;;;;;;5093432;28;21010;-73
2022/04/24 01:32:25;;;;;;;41.27;37.77;;;10.60;87.10;;;;;;5093775;28;20195;-74
2022/04/24 01:34:52;;;;;;;39.90;36.97;;;10.60;87.20;;;;;;5093926;28;20471;-73
2022/04/24 01:37:19;;;;;;;40.80;37.75;;;10.60;87.20;;;;;;5093736;28;20631;-73
2022/04/24 01:39:47;;;;;;;40.30;37.20;;;10.60;87.10;;;;;;5093222;28;20286;-73
2022/04/24 01:42:14;;;;;;;40.97;37.77;;;10.70;87.00;;;;;;5093660;28;20274;-73
2022/04/24 01:44:41;;;;;;;40.47;37.38;;;10.70;86.90;;;;;;5093685;28;20565;-73
2022/04/24 01:47:08;;;;;;;41.83;38.53;;;10.70;86.90;;;;;;5093939;28;20188;-73
2022/04/24 01:49:35;;;;;;;41.33;38.17;;;10.70;87.00;;;;;;5092944;28;20492;-74
2022/04/24 01:52:02;;;;;;;39.55;36.55;;;10.70;87.00;;;;;;5092212;28;20938;-74
2022/04/24 01:54:29;;;;;;;39.47;36.47;;;10.70;87.00;;;;;;5093181;28;20257;-73
2022/04/24 01:56:57;;;;;;;39.23;36.30;;;10.80;87.00;;;;;;5093249;28;20478;-73
2022/04/24 01:59:24;;;;;;;40.37;37.37;;;10.80;87.10;;;;;;5092683;28;20536;-73
2022/04/24 02:01:51;;;;;;;41.90;38.70;;;10.80;87.00;;;;;;5093249;28;20512;-73
2022/04/24 02:04:22;;;;;;;42.20;38.90;;;10.80;87.00;;;;;;5093265;28;20528;-73
2022/04/24 02:06:49;;;;;;;40.23;37.33;;;10.90;87.40;;;;;;5092987;28;20450;-73
2022/04/24 02:09:16;;;;;;;39.10;36.20;;;10.90;87.00;;;;;;5092585;28;20532;-74
2022/04/24 02:11:43;;;;;;;41.03;37.80;;;10.90;86.80;;;;;;5092855;28;20477;-74
2022/04/24 02:14:12;;;;;;;40.23;37.17;;;11.00;86.30;;;;;;5093111;28;20473;-74
2022/04/24 02:16:39;;;;;;;41.70;38.50;;;10.90;86.80;;;;;;5092666;28;20981;-74
2022/04/24 02:19:05;;;;;;;39.23;36.23;;;10.80;87.00;;;;;;5092668;28;20540;-74
2022/04/24 02:21:32;;;;;;;41.43;38.17;;;10.90;87.10;;;;;;5091986;28;20540;-73
2022/04/24 02:23:59;;;;;;;38.50;35.50;;;10.90;87.00;;;;;;5092756;28;20558;-73
2022/04/24 02:26:26;;;;;;;40.10;36.90;;;11.00;86.80;;;;;;5092591;28;20462;-73
2022/04/24 02:28:54;;;;;;;40.07;37.07;;;11.00;86.80;;;;;;5092620;28;20453;-73
2022/04/24 02:31:22;;;;;;;40.63;37.43;;;11.00;86.80;;;;;;5092200;28;20457;-73
2022/04/24 02:33:49;;;;;;;39.80;36.80;;;11.00;86.80;;;;;;5092945;28;21054;-73
2022/04/24 02:36:16;;;;;;;41.10;37.90;;;11.00;87.00;;;;;;5092549;28;20568;-74
2022/04/24 02:38:43;;;;;;;38.90;35.90;;;11.00;87.30;;;;;;5092393;28;20961;-74
2022/04/24 02:41:10;;;;;;;40.57;37.37;;;11.00;87.90;;;;;;5092063;28;20879;-74
2022/04/24 02:43:37;;;;;;;40.63;37.43;;;11.10;87.90;;;;;;5092513;28;20465;-73
2022/04/24 02:46:04;;;;;;;40.07;37.00;;;11.10;88.00;;;;;;5092521;28;20441;-74
2022/04/24 02:48:32;;;;;;;39.27;36.30;;;11.00;88.20;;;;;;5092302;28;20913;-74
2022/04/24 02:50:59;;;;;;;40.57;37.37;;;11.10;88.30;;;;;;5091806;28;20460;-73
2022/04/24 02:53:26;;;;;;;39.67;36.57;;;11.00;89.10;;;;;;5092129;28;20481;-73
2022/04/24 02:55:53;;;;;;;38.60;35.63;;;11.00;89.40;;;;;;5092338;28;20480;-74
2022/04/24 02:58:21;;;;;;;39.83;36.63;;;11.00;89.00;;;;;;5092109;28;20885;-74
2022/04/24 03:00:50;;;;;;;40.83;37.73;;;11.00;89.00;;;;;;5091669;28;20450;-74
2022/04/24 03:03:18;;;;;;;42.37;39.17;;;11.00;88.80;;;;;;5092503;28;20470;-75
2022/04/24 03:05:48;;;;;;;40.50;37.40;;;11.10;88.50;;;;;;5092076;28;20446;-74
2022/04/24 03:08:16;;;;;;;41.03;37.93;;;11.10;88.40;;;;;;5092115;28;20533;-74
2022/04/24 03:10:43;;;;;;;40.70;37.53;;;11.10;88.50;;;;;;5091645;28;20456;-73
2022/04/24 03:13:10;;;;;;;39.07;36.07;;;11.10;88.70;;;;;;5091954;28;20509;-73
2022/04/24 03:15:38;;;;;;;41.67;38.50;;;11.10;88.60;;;;;;5092147;28;20523;-74
2022/04/24 03:18:05;;;;;;;41.97;38.53;;;11.10;88.60;;;;;;5092012;28;20450;-74
2022/04/24 03:20:32;;;;;;;40.57;37.30;;;11.10;88.90;;;;;;5091206;28;20491;-73
2022/04/24 03:23:00;;;;;;;41.33;38.03;;;11.10;89.30;;;;;;5091755;28;20576;-74
2022/04/24 03:25:27;;;;;;;40.00;36.80;;;11.10;89.50;;;;;;5091939;28;20449;-74
2022/04/24 03:27:54;;;;;;;41.10;37.70;;;11.00;89.80;;;;;;5091881;28;20457;-74
2022/04/24 03:30:21;;;;;;;38.80;35.83;;;11.00;90.10;;;;;;5091486;28;20458;-74
2022/04/24 03:32:48;;;;;;;41.37;38.03;;;10.90;90.40;;;;;;5091860;28;20556;-74
2022/04/24 03:35:15;;;;;;;42.07;38.60;;;10.90;90.50;;;;;;5091907;28;20453;-74
2022/04/24 03:37:43;;;;;;;41.20;37.90;;;11.00;90.70;;;;;;5091706;28;20917;-74
2022/04/24 03:40:11;;;;;;;41.37;38.07;;;11.00;90.60;;;;;;5093183;28;20849;-74
2022/04/24 03:42:38;;;;;;;42.13;38.60;;;11.00;90.60;;;;;;5095875;28;20449;-74
2022/04/24 03:45:09;;;;;;;41.40;37.90;;;11.00;90.60;;;;;;5095707;28;20889;-74
2022/04/24 03:47:36;;;;;;;40.53;37.40;;;11.10;90.60;;;;;;5095925;28;20457;-74
2022/04/24 03:50:03;;;;;;;43.17;39.57;;;11.00;90.60;;;;;;5095251;28;20456;-74
2022/04/24 03:52:30;;;;;;;42.20;38.80;;;11.00;90.90;;;;;;5095603;28;20544;-74
2022/04/24 03:54:57;;;;;;;41.33;37.63;;;11.00;91.10;;;;;;5095670;28;20465;-74
2022/04/24 03:57:25;;;;;;;41.00;37.50;;;10.90;91.50;;;;;;5095427;28;20568;-74
2022/04/24 03:59:52;;;;;;;42.20;38.83;;;10.90;92.00;;;;;;5094829;28;20806;-74
2022/04/24 04:02:19;;;;;;;42.37;39.00;;;10.90;92.00;;;;;;5095417;28;20537;-74
2022/04/24 04:04:46;;;;;;;39.73;36.53;;;10.90;92.00;;;;;;5095416;28;20529;-74
2022/04/24 04:07:13;;;;;;;41.30;38.00;;;10.90;92.10;;;;;;5095396;28;20537;-73
2022/04/24 04:09:40;;;;;;;41.60;38.10;;;10.90;92.20;;;;;;5094933;28;20487;-74
2022/04/24 04:12:08;;;;;;;40.43;37.23;;;10.90;92.20;;;;;;5095397;28;20495;-73
2022/04/24 04:14:37;;;;;;;41.60;38.33;;;10.90;92.30;;;;;;5095253;28;20503;-74
2022/04/24 04:17:05;;;;;;;39.93;36.93;;;11.00;92.10;;;;;;5095112;28;20668;-74
2022/04/24 04:19:34;;;;;;;42.60;39.00;;;11.10;91.40;;;;;;5094722;28;20461;-74
2022/04/24 04:22:01;;;;;;;40.33;37.07;;;11.10;91.20;;;;;;5094869;28;20564;-73
2022/04/24 04:24:28;;;;;;;40.30;37.10;;;11.00;91.50;;;;;;5094962;28;20470;-74
2022/04/24 04:26:55;;;;;;;42.00;38.60;;;11.00;91.90;;;;;;5094625;28;20935;-73
2022/04/24 04:29:22;;;;;;;42.07;38.57;;;11.00;92.10;;;;;;5094462;28;20554;-73
2022/04/24 04:31:50;;;;;;;44.27;40.57;;;11.00;92.30;;;;;;5094927;28;20459;-73
2022/04/24 04:34:17;;;;;;;42.23;38.73;;;10.90;92.60;;;;;;5094661;28;20518;-74
2022/04/24 04:36:44;;;;;;;42.53;39.23;;;10.90;92.90;;;;;;5094817;28;20480;-73
2022/04/24 04:39:11;;;;;;;42.90;39.10;;;10.90;93.00;;;;;;5094100;28;20454;-74
2022/04/24 04:41:38;;;;;;;41.07;37.40;;;11.00;93.00;;;;;;5094635;28;20455;-74
2022/04/24 04:44:05;;;;;;;33.80;31.00;;;11.00;92.60;;;;;;5094726;28;20473;-74
2022/04/24 04:46:32;;;;;;;31.53;29.23;;;11.00;90.90;;;;;;5094577;28;20446;-74
2022/04/24 04:49:00;;;;;;;28.90;26.80;;;11.00;89.90;;;;;;5094537;28;20456;-73
2022/04/24 04:51:27;;;;;;;28.43;26.43;;;11.00;89.50;;;;;;5092885;28;20488;-74
2022/04/24 04:53:55;;;;;;;24.20;22.57;;;10.80;90.20;;;;;;5094331;28;20516;-74
2022/04/24 04:56:22;;;;;;;22.13;20.80;;;10.80;89.90;;;;;;5094281;28;20473;-74
2022/04/24 04:58:49;;;;;;;22.25;20.85;;;10.80;89.30;;;;;;5094234;28;20467;-74
2022/04/24 05:01:16;;;;;;;21.33;20.13;;;10.70;88.70;;;;;;5094002;28;20199;-74
2022/04/24 05:03:43;;;;;;;20.30;19.27;;;10.60;89.20;;;;;;5094242;28;20481;-74
2022/04/24 05:06:11;;;;;;;20.02;18.85;;;10.40;89.40;;;;;;5094252;28;20282;-74
2022/04/24 05:08:38;;;;;;;18.98;18.08;;;10.40;88.80;;;;;;5094035;28;20618;-74
2022/04/24 05:11:05;;;;;;;18.52;17.63;;;10.40;88.70;;;;;;5093665;28;20249;-73
2022/04/24 05:13:32;;;;;;;18.63;17.63;;;10.30;89.00;;;;;;5094101;28;20306;-73
2022/04/24 05:15:59;;;;;;;18.30;17.40;;;10.20;89.10;;;;;;5094068;28;20293;-74
2022/04/24 05:18:26;;;;;;;17.60;16.80;;;10.20;89.60;;;;;;5093898;28;20560;-74
2022/04/24 05:20:53;;;;;;;17.45;16.65;;;10.00;89.60;;;;;;5093097;28;20668;-73
2022/04/24 05:23:21;;;;;;;19.00;18.10;;;10.00;89.70;;;;;;5094008;28;20219;-73
2022/04/24 05:25:48;;;;;;;19.48;18.58;;;9.90;89.50;;;;;;5093766;28;20326;-74
2022/04/24 05:28:15;;;;;;;18.42;17.42;;;9.90;89.90;;;;;;5093649;28;20282;-73
2022/04/24 05:30:42;;;;;;;18.67;17.70;;;9.90;90.10;;;;;;5093512;28;20614;-73
2022/04/24 05:33:09;;;;;;;19.05;18.05;;;9.80;89.50;;;;;;5093929;28;20241;-73
2022/04/24 05:35:36;;;;;;;18.20;17.30;;;9.80;89.80;;;;;;5093700;28;20556;-73
2022/04/24 05:38:03;;;;;;;19.60;18.60;;;9.80;90.00;;;;;;5093528;28;20263;-73
2022/04/24 05:40:31;;;;;;;18.52;17.50;;;9.80;89.80;;;;;;5093024;28;20198;-73
2022/04/24 05:42:58;;;;;;;19.45;18.55;;;9.70;90.20;;;;;;5093576;28;20211;-74
2022/04/24 05:45:25;;;;;;;19.00;18.00;;;9.70;90.30;;;;;;5093429;28;20200;-73
2022/04/24 05:47:54;;;;;;;18.45;17.55;;;9.60;89.80;;;;;;5093362;28;20196;-74
2022/04/24 05:50:23;;;;;;;18.20;17.30;;;9.60;90.50;;;;;;5093291;28;20280;-74
2022/04/24 05:52:50;;;;;;;18.08;17.27;;;9.60;89.90;;;;;;5093538;28;20657;-73
2022/04/24 05:55:17;;;;;;;18.40;17.50;;;9.60;89.80;;;;;;5093362;28;20516;-73
2022/04/24 05:57:45;;;;;;;19.10;18.20;;;9.60;89.20;;;;;;5093157;28;20240;-73
2022/04/24 06:00:13;;;;;;;18.63;17.50;;;9.50;89.90;;;;;;5092892;28;20191;-74
2022/04/24 06:02:40;;;;;;;17.63;16.83;;;9.50;90.20;;;;;;5092899;28;20649;-74
2022/04/24 06:05:10;;;;;;;19.80;18.80;;;9.50;90.70;;;;;;5092932;28;20203;-73
2022/04/24 06:07:37;;;;;;;18.45;17.60;;;9.50;90.70;;;;;;5093195;28;20680;-73
2022/04/24 06:10:05;;;;;;;18.77;17.90;;;9.50;90.60;;;;;;5092554;28;20201;-73
2022/04/24 06:12:32;;;;;;;17.58;16.77;;;9.50;90.10;;;;;;5093025;28;20206;-73
2022/04/24 06:15:04;;;;;;;18.70;17.88;;;9.40;90.50;;;;;;5092848;28;20588;-75
2022/04/24 06:17:31;;;;;;;17.50;16.50;;;9.30;90.60;;;;;;5092780;28;20216;-75
2022/04/24 06:19:58;;;;;;;18.17;17.38;;;9.30;91.00;;;;;;5092478;28;20198;-74
2022/04/24 06:22:25;;;;;;;17.33;16.52;;;9.30;91.20;;;;;;5092379;28;20284;-75
2022/04/24 06:24:52;;;;;;;19.10;18.20;;;9.40;90.90;;;;;;5092927;28;20219;-75
2022/04/24 06:27:19;;;;;;;19.60;18.70;;;9.40;91.00;;;;;;5092455;28;20268;-73
2022/04/24 06:29:46;;;;;;;17.45;16.65;;;9.40;90.80;;;;;;5092351;28;20294;-73
2022/04/24 06:32:14;;;;;;;17.30;16.50;;;9.40;91.00;;;;;;5092723;28;20283;-74
2022/04/24 06:34:41;;;;;;;18.52;17.65;;;9.40;90.90;;;;;;5092646;28;20304;-73
2022/04/24 06:37:08;;;;;;;18.33;17.50;;;9.40;90.70;;;;;;5092563;28;20359;-73
2022/04/24 06:39:35;;;;;;;20.10;19.20;;;9.40;90.80;;;;;;5092098;28;20199;-74
2022/04/24 06:42:02;;;;;;;16.80;16.10;;;9.50;90.40;;;;;;5092504;28;20231;-74
2022/04/24 06:44:29;;;;;;;17.10;16.30;;;9.60;90.20;;;;;;5092505;28;20322;-73
2022/04/24 06:46:56;;;;;;;17.30;16.40;;;9.60;90.10;;;;;;5092401;28;20318;-73
2022/04/24 06:49:24;;;;;;;17.75;16.95;;;9.70;90.10;;;;;;5091807;28;20222;-73
2022/04/24 06:51:51;;;;;;;18.40;17.50;;;9.80;89.70;;;;;;5092539;28;20200;-74
2022/04/24 06:54:18;;;;;;;17.50;16.70;;;9.80;89.30;;;;;;5092445;28;20302;-74
2022/04/24 06:56:44;;;;;;;19.42;18.45;;;9.90;89.30;;;;;;5092265;28;20290;-73
2022/04/24 06:59:11;;;;;;;17.55;16.70;;;9.90;89.00;;;;;;5091553;28;20199;-73
2022/04/24 07:01:38;;;;;;;18.98;18.08;;;9.90;89.20;;;;;;5092241;28;20195;-73
2022/04/24 07:04:05;;;;;;;17.50;16.70;;;10.00;88.50;;;;;;5092143;28;20298;-73
2022/04/24 07:06:34;;;;;;;18.30;17.50;;;10.00;88.90;;;;;;5092178;28;20607;-74
2022/04/24 07:09:00;;;;;;;17.98;17.17;;;10.00;88.80;;;;;;5092094;28;20203;-74
2022/04/24 07:11:27;;;;;;;18.60;17.80;;;10.00;88.80;;;;;;5091730;28;20283;-74
2022/04/24 07:13:54;;;;;;;19.23;18.33;;;10.00;89.10;;;;;;5092085;28;20220;-74
2022/04/24 07:16:21;;;;;;;20.10;19.10;;;9.90;89.00;;;;;;5096051;28;20233;-74
2022/04/24 07:18:48;;;;;;;20.65;19.55;;;10.00;89.20;;;;;;5096167;28;20255;-74
2022/04/24 07:21:15;;;;;;;19.05;18.15;;;10.00;88.80;;;;;;5095551;28;20206;-74
2022/04/24 07:23:43;;;;;;;17.67;16.80;;;10.00;89.00;;;;;;5096105;28;20298;-74
2022/04/24 07:26:10;;;;;;;20.20;19.30;;;10.00;89.20;;;;;;5095758;28;20664;-74
2022/04/24 07:28:37;;;;;;;18.05;17.25;;;10.00;88.90;;;;;;5096146;28;20202;-74
2022/04/24 07:31:03;;;;;;;17.63;16.83;;;10.10;89.00;;;;;;5095543;28;20290;-74
2022/04/24 07:33:30;;;;;;;17.80;17.00;;;10.10;88.80;;;;;;5096071;28;20226;-74
2022/04/24 07:35:57;;;;;;;17.08;16.27;;;10.10;88.40;;;;;;5096128;28;20281;-74
2022/04/24 07:38:24;;;;;;;20.13;19.15;;;10.10;88.40;;;;;;5095731;28;20226;-74
2022/04/24 07:40:52;;;;;;;18.10;17.30;;;10.00;89.00;;;;;;5095416;28;20203;-74
2022/04/24 07:43:19;;;;;;;18.73;17.85;;;10.10;88.80;;;;;;5095836;28;20219;-74
2022/04/24 07:45:48;;;;;;;18.20;17.40;;;10.00;88.60;;;;;;5095768;28;20200;-74
2022/04/24 07:48:16;;;;;;;18.20;17.40;;;10.10;88.30;;;;;;5095734;28;20245;-74
2022/04/24 07:50:45;;;;;;;17.85;17.05;;;10.10;88.30;;;;;;5095187;28;20196;-74
2022/04/24 07:53:14;;;;;;;18.48;17.30;;;10.10;88.10;;;;;;5095438;28;20307;-74
2022/04/24 07:55:42;;;;;;;20.25;19.25;;;10.20;87.80;;;;;;5095733;28;20740;-74
2022/04/24 07:58:11;;;;;;;17.58;16.75;;;10.10;88.50;;;;;;5095405;28;20259;-74
2022/04/24 08:00:39;;;;;;;18.23;17.42;;;10.20;88.80;;;;;;5095047;28;20195;-74
2022/04/24 08:03:07;;;;;;;18.20;17.35;;;10.20;89.00;;;;;;5095347;28;20223;-74
2022/04/24 08:05:36;;;;;;;18.10;17.00;;;10.20;89.30;;;;;;5095414;28;20199;-74
2022/04/24 08:08:05;;;;;;;19.30;18.40;;;10.30;89.40;;;;;;5095197;28;20950;-74
2022/04/24 08:10:33;;;;;;;19.33;18.43;;;10.40;89.10;;;;;;5094846;28;20539;-74
2022/04/24 08:13:04;;;;;;;19.33;18.43;;;10.40;89.40;;;;;;5095256;28;20480;-74
2022/04/24 08:15:33;;;;;;;19.43;18.53;;;10.60;89.10;;;;;;5095226;28;20457;-74
2022/04/24 08:18:00;;;;;;;18.30;17.30;;;10.50;88.90;;;;;;5095229;28;21011;-74
2022/04/24 08:20:27;;;;;;;18.77;17.87;;;10.60;88.70;;;;;;5094566;28;20459;-74
2022/04/24 08:22:57;;;;;;;20.93;19.63;;;10.60;88.60;;;;;;5094838;28;20494;-74
2022/04/24 08:25:25;;;;;;;18.57;17.43;;;10.60;89.00;;;;;;5094679;28;20508;-74
2022/04/24 08:27:55;;;;;;;19.53;18.43;;;10.70;89.00;;;;;;5094927;28;20546;-74
2022/04/24 08:30:24;;;;;;;19.83;18.83;;;10.80;88.80;;;;;;5094378;28;21018;-74
2022/04/24 08:32:53;;;;;;;17.20;16.40;;;10.80;88.50;;;;;;5094992;28;20935;-74
2022/04/24 08:35:21;;;;;;;17.40;16.50;;;10.80;88.90;;;;;;5094929;28;20449;-74
2022/04/24 08:37:48;;;;;;;18.33;17.43;;;10.90;89.20;;;;;;5095120;28;20523;-74
2022/04/24 08:40:18;;;;;;;17.50;16.67;;;10.90;89.00;;;;;;5094198;28;20445;-74
2022/04/24 08:42:45;;;;;;;18.30;17.40;;;11.00;88.80;;;;;;5094844;28;20450;-74
2022/04/24 08:45:14;;;;;;;17.43;16.53;;;11.00;88.80;;;;;;5094514;28;20449;-74
2022/04/24 08:47:42;;;;;;;17.77;16.97;;;11.00;88.20;;;;;;5094559;28;20455;-74
2022/04/24 08:50:12;;;;;;;18.30;17.40;;;11.00;88.00;;;;;;5094101;28;20796;-74
2022/04/24 08:52:43;;;;;;;21.10;20.03;;;11.10;87.70;;;;;;5094585;28;20493;-74
2022/04/24 08:55:10;;;;;;;18.73;17.83;;;11.20;87.00;;;;;;5094531;28;20468;-74
2022/04/24 08:57:37;;;;;;;19.80;18.60;;;11.20;87.60;;;;;;5094455;28;20474;-74
2022/04/24 09:00:07;;;;;;;17.90;17.10;;;11.20;87.30;;;;;;5093640;28;20541;-74
2022/04/24 09:02:34;;;;;;;20.77;19.70;;;11.30;86.90;;;;;;5094351;28;20477;-74
2022/04/24 09:05:03;;;;;;;17.83;17.03;;;11.30;86.80;;;;;;5094184;28;20456;-74
2022/04/24 09:07:33;;;;;;;20.37;19.40;;;11.30;87.30;;;;;;5094162;28;20869;-74
2022/04/24 09:10:04;;;;;;;17.77;16.97;;;11.40;87.00;;;;;;5093636;28;20450;-74
2022/04/24 09:12:32;;;;;;;18.17;17.37;;;11.50;86.50;;;;;;5094131;28;20481;-74
2022/04/24 09:14:59;;;;;;;19.33;18.37;;;11.50;86.70;;;;;;5094100;28;20478;-74
2022/04/24 09:17:28;;;;;;;18.20;17.40;;;11.60;86.40;;;;;;5093875;28;20486;-74
2022/04/24 09:19:56;;;;;;;19.20;18.30;;;11.70;85.70;;;;;;5093517;28;20479;-74
2022/04/24 09:22:24;;;;;;;19.57;18.67;;;11.80;85.50;;;;;;5093432;28;20469;-74
2022/04/24 09:24:55;;;;;;;18.63;17.70;;;11.70;85.30;;;;;;5093735;28;20480;-74
2022/04/24 09:27:25;;;;;;;18.60;17.70;;;11.90;85.60;;;;;;5093419;28;20464;-74
2022/04/24 09:29:54;;;;;;;18.17;17.37;;;11.90;85.10;;;;;;5093409;28;20503;-74
2022/04/24 09:32:22;;;;;;;21.63;20.33;;;11.70;85.30;;;;;;5093737;28;20477;-74
2022/04/24 09:34:50;;;;;;;18.50;17.60;;;11.80;85.90;;;;;;5093596;28;20469;-74
2022/04/24 09:37:18;;;;;;;19.50;18.50;;;11.90;85.90;;;;;;5092637;28;20450;-74
2022/04/24 09:39:45;;;;;;;18.83;18.00;;;11.90;85.10;;;;;;5092847;28;20481;-74
2022/04/24 09:42:18;;;;;;;19.00;18.10;;;11.90;85.50;;;;;;5093592;28;20450;-74
2022/04/24 09:44:47;;;;;;;18.47;17.67;;;11.90;85.50;;;;;;5093362;28;21062;-74
2022/04/24 09:47:14;;;;;;;21.40;20.40;;;11.90;85.70;;;;;;5093326;28;20453;-74
2022/04/24 09:49:42;;;;;;;20.80;19.60;;;11.90;85.70;;;;;;5092812;28;20450;-74
2022/04/24 09:52:14;;;;;;;18.70;17.80;;;11.80;85.80;;;;;;5093194;28;20544;-74
2022/04/24 09:54:42;;;;;;;20.00;19.00;;;11.90;86.10;;;;;;5093268;28;20484;-74
2022/04/24 09:57:11;;;;;;;20.60;19.60;;;12.00;86.30;;;;;;5093441;28;20454;-74
2022/04/24 09:59:43;;;;;;;20.17;19.17;;;12.00;86.20;;;;;;5092929;28;20513;-74
2022/04/24 10:02:11;;;;;;;19.37;18.37;;;12.00;86.10;;;;;;5094200;28;20489;-74
2022/04/24 10:04:39;;;;;;;20.40;19.40;;;12.10;85.80;;;;;;5094094;28;20530;-74
2022/04/24 10:07:08;;;;;;;19.40;18.50;;;12.20;85.90;;;;;;5094164;28;20453;-74
2022/04/24 10:09:36;;;;;;;21.33;20.23;;;12.20;86.00;;;;;;5093102;28;20935;-74
2022/04/24 10:12:08;;;;;;;19.80;18.80;;;12.20;85.40;;;;;;5095235;28;20446;-74
2022/04/24 10:14:40;;;;;;;19.87;18.87;;;12.30;85.40;;;;;;5093971;28;20569;-74
2022/04/24 10:17:22;;;;;;;19.43;18.53;;;12.40;85.00;;;;;;5094332;28;20481;-74
2022/04/24 10:20:16;;;;;;;19.50;18.40;;;12.50;84.80;;;;;;5095471;28;20477;-74
2022/04/24 10:22:47;;;;;;;19.37;18.47;;;12.50;84.50;;;;;;5095020;28;20462;-74
2022/04/24 10:25:15;;;;;;;19.10;18.20;;;12.60;84.70;;;;;;5092981;28;20453;-74
2022/04/24 10:27:43;;;;;;;21.73;20.33;;;12.60;84.40;;;;;;5092741;28;20888;-74
2022/04/24 10:30:13;;;;;;;20.30;19.20;;;12.70;84.00;;;;;;5092468;28;20454;-74
2022/04/24 10:32:45;;;;;;;22.73;21.43;;;12.70;83.70;;;;;;5092794;28;20528;-74
2022/04/24 10:35:18;;;;;;;20.90;19.90;;;12.70;84.40;;;;;;5092755;28;20460;-74
2022/04/24 10:37:47;;;;;;;20.50;19.40;;;12.60;84.80;;;;;;5092476;28;20523;-74
2022/04/24 10:40:16;;;;;;;20.57;19.57;;;12.70;84.20;;;;;;5091948;28;20453;-74
2022/04/24 10:42:44;;;;;;;20.77;19.77;;;12.80;84.20;;;;;;5092723;28;20492;-74
2022/04/24 10:45:15;;;;;;;20.60;19.50;;;12.70;84.60;;;;;;5092408;28;20537;-74
2022/04/24 10:47:47;;;;;;;20.70;19.70;;;12.90;84.50;;;;;;5092416;28;20449;-74
2022/04/24 10:50:14;;;;;;;19.77;18.77;;;12.90;83.80;;;;;;5091763;28;20460;-74
2022/04/24 10:52:43;;;;;;;19.40;18.50;;;12.90;83.20;;;;;;5092464;28;20548;-74
2022/04/24 10:55:13;;;;;;;20.57;19.57;;;12.90;83.40;;;;;;5092583;28;20461;-74
2022/04/24 10:57:44;;;;;;;19.43;18.50;;;12.90;83.70;;;;;;5092359;28;20499;-74
2022/04/24 11:00:19;;;;;;;19.30;18.30;;;12.90;83.60;;;;;;5091767;28;20474;-74
2022/04/24 11:02:48;;;;;;;20.07;19.07;;;12.70;84.40;;;;;;5092204;28;20456;-74
2022/04/24 11:05:20;;;;;;;20.60;19.60;;;12.70;84.60;;;;;;5092489;28;20458;-74
2022/04/24 11:07:47;;;;;;;19.50;18.50;;;12.60;84.00;;;;;;5092177;28;20450;-74
2022/04/24 11:10:20;;;;;;;19.50;18.50;;;12.60;84.60;;;;;;5091690;28;20449;-74
2022/04/24 11:12:48;;;;;;;19.27;18.20;;;12.40;84.90;;;;;;5092416;28;20449;-74
2022/04/24 11:15:16;;;;;;;19.43;18.33;;;12.40;85.30;;;;;;5092088;28;20446;-74
2022/04/24 11:17:43;;;;;;;19.40;18.40;;;12.30;85.60;;;;;;5092186;28;20450;-74
2022/04/24 11:20:14;;;;;;;19.83;18.93;;;12.30;85.60;;;;;;5091446;28;20561;-74
2022/04/24 11:22:49;;;;;;;20.13;19.13;;;12.30;85.20;;;;;;5091582;28;20497;-74
2022/04/24 11:25:17;;;;;;;20.13;19.03;;;12.40;85.50;;;;;;5091940;28;20444;-74
2022/04/24 11:27:44;;;;;;;21.97;20.83;;;12.50;84.20;;;;;;5091721;28;20548;-74
2022/04/24 11:30:15;;;;;;;20.27;19.17;;;12.50;83.60;;;;;;5091427;28;20870;-74
2022/04/24 11:32:42;;;;;;;21.73;20.67;;;12.60;84.00;;;;;;5091934;28;20450;-74
2022/04/24 11:35:11;;;;;;;20.83;19.70;;;12.70;84.10;;;;;;5092038;28;20460;-74
2022/04/24 11:37:43;;;;;;;20.37;19.37;;;12.90;83.20;;;;;;5092166;28;20460;-74
2022/04/24 11:40:11;;;;;;;20.40;19.30;;;12.90;83.80;;;;;;5091341;28;20481;-74
2022/04/24 11:42:38;;;;;;;20.00;18.97;;;13.00;83.10;;;;;;5091930;28;20458;-74
2022/04/24 11:50:51;;;;;;;19.73;18.53;;;13.10;83.20;;;;;;5091538;28;20437;-74
2022/04/24 11:53:19;;;;;;;21.67;20.60;;;13.20;82.80;;;;;;5091927;28;20505;-74
2022/04/24 11:56:04;;;;;;;19.90;19.00;;;13.30;82.20;;;;;;5091771;28;20545;-74
2022/04/24 11:58:35;;;;;;;20.70;19.70;;;13.20;82.30;;;;;;5091585;28;20560;-74
2022/04/24 12:01:04;;;;;;;20.67;19.67;;;13.10;82.80;;;;;;5092607;28;20502;-74
2022/04/24 12:03:32;;;;;;;19.87;18.90;;;13.10;83.10;;;;;;5095598;28;20473;-74
2022/04/24 12:06:02;;;;;;;21.40;20.30;;;13.20;82.80;;;;;;5095270;28;20499;-74
2022/04/24 12:08:40;;;;;;;20.43;19.43;;;13.30;82.70;;;;;;5095404;28;20462;-74
2022/04/24 12:11:07;;;;;;;20.23;18.90;;;13.30;82.50;;;;;;5094936;28;20485;-74
2022/04/24 12:13:34;;;;;;;20.40;19.40;;;13.40;82.40;;;;;;5095190;28;21040;-74
2022/04/24 12:16:02;;;;;;;21.53;20.37;;;13.30;83.30;;;;;;5095185;28;20552;-74
2022/04/24 12:18:29;;;;;;;20.20;19.10;;;13.50;82.70;;;;;;5095153;28;20895;-74
2022/04/24 12:20:56;;;;;;;21.93;20.70;;;13.60;82.00;;;;;;5094456;28;20507;-74
2022/04/24 12:23:26;;;;;;;20.90;19.90;;;13.60;81.70;;;;;;5094940;28;20488;-74
2022/04/24 12:25:55;;;;;;;20.70;19.70;;;13.60;82.20;;;;;;5094954;28;20930;-74
2022/04/24 12:28:35;;;;;;;21.30;20.20;;;13.60;82.50;;;;;;5094511;28;20467;-74
2022/04/24 12:31:03;;;;;;;23.07;22.07;;;13.70;81.90;;;;;;5094399;28;20839;-74
2022/04/24 12:33:30;;;;;;;21.10;20.10;;;13.70;81.30;;;;;;5094947;28;20572;-74
2022/04/24 12:36:08;;;;;;;21.50;20.30;;;13.60;81.30;;;;;;5094749;28;20453;-74
2022/04/24 12:38:37;;;;;;;20.77;19.77;;;13.70;81.30;;;;;;5094798;28;20454;-74